sensor_id;sensor_type;location;lat;lon;timestamp;P1;durP1;ratioP1;P2;durP2;ratioP2
22236;SDS011;11287;48.122;11.536;2022-10-31T00:01:29;19.80;;;9.23;;
22236;SDS011;11287;48.122;11.536;2022-10-31T00:03:57;18.70;;;8.80;;
22236;SDS011;11287;48.122;11.536;2022-10-31T00:06:22;20.08;;;9.48;;
22236;SDS011;11287;48.122;11.536;2022-10-31T00:08:51;22.92;;;9.50;;
22236;SDS011;11287;48.122;11.536;2022-10-31T00:11:17;19.40;;;9.07;;
22236;SDS011;11287;48.122;11.536;2022-10-31T00:13:43;18.60;;;8.63;;
22236;SDS011;11287;48.122;11.536;2022-10-31T00:16:18;18.40;;;9.18;;
22236;SDS011;11287;48.122;11.536;2022-10-31T00:18:51;14.65;;;8.50;;
22236;SDS011;11287;48.122;11.536;2022-10-31T00:21:17;13.47;;;7.07;;
22236;SDS011;11287;48.122;11.536;2022-10-31T00:23:43;15.05;;;8.40;;
22236;SDS011;11287;48.122;11.536;2022-10-31T00:26:08;21.10;;;8.45;;
22236;SDS011;11287;48.122;11.536;2022-10-31T00:28:34;17.23;;;8.15;;
22236;SDS011;11287;48.122;11.536;2022-10-31T00:31:00;16.75;;;7.90;;
22236;SDS011;11287;48.122;11.536;2022-10-31T00:33:26;21.67;;;8.57;;
22236;SDS011;11287;48.122;11.536;2022-10-31T00:35:51;16.13;;;8.18;;
22236;SDS011;11287;48.122;11.536;2022-10-31T00:38:17;20.52;;;8.60;;
22236;SDS011;11287;48.122;11.536;2022-10-31T00:40:42;16.98;;;8.20;;
22236;SDS011;11287;48.122;11.536;2022-10-31T00:43:07;17.42;;;7.60;;
22236;SDS011;11287;48.122;11.536;2022-10-31T00:45:33;19.65;;;8.07;;
22236;SDS011;11287;48.122;11.536;2022-10-31T00:47:58;21.83;;;8.52;;
22236;SDS011;11287;48.122;11.536;2022-10-31T00:50:24;19.63;;;7.88;;
22236;SDS011;11287;48.122;11.536;2022-10-31T00:52:49;17.65;;;8.45;;
22236;SDS011;11287;48.122;11.536;2022-10-31T00:55:14;21.10;;;8.05;;
22236;SDS011;11287;48.122;11.536;2022-10-31T00:57:40;19.17;;;8.32;;
22236;SDS011;11287;48.122;11.536;2022-10-31T01:00:05;14.07;;;7.65;;
22236;SDS011;11287;48.122;11.536;2022-10-31T01:02:31;21.45;;;8.40;;
22236;SDS011;11287;48.122;11.536;2022-10-31T01:04:56;15.35;;;7.28;;
22236;SDS011;11287;48.122;11.536;2022-10-31T01:07:21;18.10;;;7.13;;
22236;SDS011;11287;48.122;11.536;2022-10-31T01:09:47;18.83;;;7.68;;
22236;SDS011;11287;48.122;11.536;2022-10-31T01:12:12;17.00;;;6.93;;
22236;SDS011;11287;48.122;11.536;2022-10-31T01:14:37;20.60;;;7.20;;
22236;SDS011;11287;48.122;11.536;2022-10-31T01:17:03;15.15;;;7.00;;
22236;SDS011;11287;48.122;11.536;2022-10-31T01:19:28;14.60;;;6.47;;
22236;SDS011;11287;48.122;11.536;2022-10-31T01:21:54;20.25;;;7.75;;
22236;SDS011;11287;48.122;11.536;2022-10-31T01:24:20;21.13;;;6.72;;
22236;SDS011;11287;48.122;11.536;2022-10-31T01:26:45;17.45;;;7.13;;
22236;SDS011;11287;48.122;11.536;2022-10-31T01:29:10;14.25;;;7.00;;
22236;SDS011;11287;48.122;11.536;2022-10-31T01:31:37;15.55;;;6.53;;
22236;SDS011;11287;48.122;11.536;2022-10-31T01:34:03;15.75;;;6.60;;
22236;SDS011;11287;48.122;11.536;2022-10-31T01:36:33;16.17;;;6.50;;
22236;SDS011;11287;48.122;11.536;2022-10-31T01:39:01;14.73;;;6.30;;
22236;SDS011;11287;48.122;11.536;2022-10-31T01:41:30;15.43;;;6.20;;
22236;SDS011;11287;48.122;11.536;2022-10-31T01:44:43;13.98;;;7.00;;
22236;SDS011;11287;48.122;11.536;2022-10-31T01:46:48;17.27;;;6.38;;
22236;SDS011;11287;48.122;11.536;2022-10-31T01:49:38;14.75;;;5.85;;
22236;SDS011;11287;48.122;11.536;2022-10-31T01:52:07;17.30;;;6.43;;
22236;SDS011;11287;48.122;11.536;2022-10-31T01:54:37;17.65;;;5.45;;
22236;SDS011;11287;48.122;11.536;2022-10-31T01:57:08;10.45;;;4.95;;
22236;SDS011;11287;48.122;11.536;2022-10-31T01:59:36;12.73;;;5.28;;
22236;SDS011;11287;48.122;11.536;2022-10-31T02:02:08;13.40;;;4.53;;
22236;SDS011;11287;48.122;11.536;2022-10-31T02:04:33;12.27;;;4.93;;
22236;SDS011;11287;48.122;11.536;2022-10-31T02:07:03;12.77;;;5.50;;
22236;SDS011;11287;48.122;11.536;2022-10-31T02:09:31;14.05;;;6.43;;
22236;SDS011;11287;48.122;11.536;2022-10-31T02:11:57;11.07;;;4.93;;
22236;SDS011;11287;48.122;11.536;2022-10-31T02:14:24;11.25;;;5.00;;
22236;SDS011;11287;48.122;11.536;2022-10-31T02:16:50;16.50;;;4.97;;
22236;SDS011;11287;48.122;11.536;2022-10-31T02:19:18;8.95;;;4.50;;
22236;SDS011;11287;48.122;11.536;2022-10-31T02:21:53;14.32;;;4.93;;
22236;SDS011;11287;48.122;11.536;2022-10-31T02:27:08;7.18;;;4.25;;
22236;SDS011;11287;48.122;11.536;2022-10-31T02:37:37;15.43;;;4.97;;
22236;SDS011;11287;48.122;11.536;2022-10-31T02:45:29;13.80;;;5.22;;
22236;SDS011;11287;48.122;11.536;2022-10-31T02:47:58;10.32;;;5.38;;
22236;SDS011;11287;48.122;11.536;2022-10-31T02:50:29;11.73;;;5.15;;
22236;SDS011;11287;48.122;11.536;2022-10-31T02:52:56;13.60;;;4.90;;
22236;SDS011;11287;48.122;11.536;2022-10-31T02:57:51;10.25;;;4.78;;
22236;SDS011;11287;48.122;11.536;2022-10-31T03:00:24;12.45;;;5.05;;
22236;SDS011;11287;48.122;11.536;2022-10-31T03:05:39;10.80;;;4.85;;
22236;SDS011;11287;48.122;11.536;2022-10-31T03:10:56;7.50;;;4.65;;
22236;SDS011;11287;48.122;11.536;2022-10-31T03:13:34;9.48;;;4.50;;
22236;SDS011;11287;48.122;11.536;2022-10-31T03:18:32;9.63;;;4.53;;
22236;SDS011;11287;48.122;11.536;2022-10-31T03:25:59;15.95;;;4.90;;
22236;SDS011;11287;48.122;11.536;2022-10-31T03:28:28;11.82;;;4.88;;
22236;SDS011;11287;48.122;11.536;2022-10-31T03:30:55;11.07;;;5.25;;
22236;SDS011;11287;48.122;11.536;2022-10-31T03:33:23;12.98;;;4.85;;
22236;SDS011;11287;48.122;11.536;2022-10-31T03:35:52;12.98;;;4.40;;
22236;SDS011;11287;48.122;11.536;2022-10-31T03:38:18;7.97;;;4.43;;
22236;SDS011;11287;48.122;11.536;2022-10-31T03:40:44;13.00;;;5.13;;
22236;SDS011;11287;48.122;11.536;2022-10-31T03:43:13;9.20;;;4.65;;
22236;SDS011;11287;48.122;11.536;2022-10-31T03:45:48;10.50;;;4.65;;
22236;SDS011;11287;48.122;11.536;2022-10-31T03:48:14;9.57;;;4.50;;
22236;SDS011;11287;48.122;11.536;2022-10-31T03:53:16;9.68;;;4.70;;
22236;SDS011;11287;48.122;11.536;2022-10-31T03:55:56;10.43;;;4.50;;
22236;SDS011;11287;48.122;11.536;2022-10-31T03:58:26;11.77;;;4.78;;
22236;SDS011;11287;48.122;11.536;2022-10-31T04:01:04;9.63;;;4.45;;
22236;SDS011;11287;48.122;11.536;2022-10-31T04:03:32;10.38;;;4.30;;
22236;SDS011;11287;48.122;11.536;2022-10-31T04:06:01;12.60;;;4.60;;
22236;SDS011;11287;48.122;11.536;2022-10-31T04:08:31;11.80;;;4.93;;
22236;SDS011;11287;48.122;11.536;2022-10-31T04:10:58;14.30;;;4.95;;
22236;SDS011;11287;48.122;11.536;2022-10-31T04:13:26;16.30;;;5.30;;
22236;SDS011;11287;48.122;11.536;2022-10-31T04:15:54;14.35;;;4.72;;
22236;SDS011;11287;48.122;11.536;2022-10-31T04:18:20;9.52;;;4.40;;
22236;SDS011;11287;48.122;11.536;2022-10-31T04:20:46;8.85;;;4.60;;
22236;SDS011;11287;48.122;11.536;2022-10-31T04:23:20;11.77;;;4.65;;
22236;SDS011;11287;48.122;11.536;2022-10-31T04:25:47;9.02;;;4.72;;
22236;SDS011;11287;48.122;11.536;2022-10-31T04:28:13;9.88;;;5.03;;
22236;SDS011;11287;48.122;11.536;2022-10-31T04:30:38;13.77;;;4.90;;
22236;SDS011;11287;48.122;11.536;2022-10-31T04:33:04;10.40;;;4.68;;
22236;SDS011;11287;48.122;11.536;2022-10-31T04:35:29;14.02;;;5.30;;
22236;SDS011;11287;48.122;11.536;2022-10-31T04:37:54;13.00;;;4.93;;
22236;SDS011;11287;48.122;11.536;2022-10-31T04:40:19;13.25;;;5.47;;
22236;SDS011;11287;48.122;11.536;2022-10-31T04:42:45;8.43;;;4.43;;
22236;SDS011;11287;48.122;11.536;2022-10-31T04:45:10;9.95;;;4.63;;
22236;SDS011;11287;48.122;11.536;2022-10-31T04:47:36;10.95;;;4.55;;
22236;SDS011;11287;48.122;11.536;2022-10-31T04:50:01;13.00;;;5.18;;
22236;SDS011;11287;48.122;11.536;2022-10-31T04:52:27;10.18;;;5.45;;
22236;SDS011;11287;48.122;11.536;2022-10-31T04:54:52;11.50;;;5.20;;
22236;SDS011;11287;48.122;11.536;2022-10-31T04:57:18;12.95;;;4.85;;
22236;SDS011;11287;48.122;11.536;2022-10-31T04:59:43;14.30;;;5.65;;
22236;SDS011;11287;48.122;11.536;2022-10-31T05:02:08;10.20;;;4.60;;
22236;SDS011;11287;48.122;11.536;2022-10-31T05:04:34;13.82;;;5.10;;
22236;SDS011;11287;48.122;11.536;2022-10-31T05:06:59;12.68;;;4.90;;
22236;SDS011;11287;48.122;11.536;2022-10-31T05:09:25;9.65;;;4.80;;
22236;SDS011;11287;48.122;11.536;2022-10-31T05:11:50;13.95;;;5.10;;
22236;SDS011;11287;48.122;11.536;2022-10-31T05:14:15;7.50;;;4.65;;
22236;SDS011;11287;48.122;11.536;2022-10-31T05:16:40;11.60;;;4.80;;
22236;SDS011;11287;48.122;11.536;2022-10-31T05:19:06;16.25;;;5.20;;
22236;SDS011;11287;48.122;11.536;2022-10-31T05:21:31;14.82;;;5.40;;
22236;SDS011;11287;48.122;11.536;2022-10-31T05:23:56;12.52;;;4.88;;
22236;SDS011;11287;48.122;11.536;2022-10-31T05:26:22;10.60;;;4.85;;
22236;SDS011;11287;48.122;11.536;2022-10-31T05:28:47;10.60;;;5.00;;
22236;SDS011;11287;48.122;11.536;2022-10-31T05:31:12;10.00;;;5.30;;
22236;SDS011;11287;48.122;11.536;2022-10-31T05:33:38;19.33;;;5.43;;
22236;SDS011;11287;48.122;11.536;2022-10-31T05:36:03;11.65;;;5.55;;
22236;SDS011;11287;48.122;11.536;2022-10-31T05:38:28;10.90;;;5.35;;
22236;SDS011;11287;48.122;11.536;2022-10-31T05:40:54;12.90;;;5.65;;
22236;SDS011;11287;48.122;11.536;2022-10-31T05:43:23;13.38;;;5.63;;
22236;SDS011;11287;48.122;11.536;2022-10-31T05:45:51;10.82;;;5.25;;
22236;SDS011;11287;48.122;11.536;2022-10-31T05:48:17;10.93;;;5.47;;
22236;SDS011;11287;48.122;11.536;2022-10-31T05:50:42;7.55;;;4.68;;
22236;SDS011;11287;48.122;11.536;2022-10-31T05:53:08;11.15;;;5.32;;
22236;SDS011;11287;48.122;11.536;2022-10-31T05:55:33;10.07;;;5.18;;
22236;SDS011;11287;48.122;11.536;2022-10-31T05:57:58;10.63;;;5.00;;
22236;SDS011;11287;48.122;11.536;2022-10-31T06:00:24;11.15;;;5.20;;
22236;SDS011;11287;48.122;11.536;2022-10-31T06:02:57;12.95;;;5.15;;
22236;SDS011;11287;48.122;11.536;2022-10-31T06:05:23;14.80;;;5.20;;
22236;SDS011;11287;48.122;11.536;2022-10-31T06:07:48;9.23;;;5.80;;
22236;SDS011;11287;48.122;11.536;2022-10-31T06:10:14;13.45;;;5.88;;
22236;SDS011;11287;48.122;11.536;2022-10-31T06:12:39;12.02;;;5.63;;
22236;SDS011;11287;48.122;11.536;2022-10-31T06:15:05;11.88;;;6.00;;
22236;SDS011;11287;48.122;11.536;2022-10-31T06:17:33;13.30;;;5.13;;
22236;SDS011;11287;48.122;11.536;2022-10-31T06:19:59;8.35;;;4.55;;
22236;SDS011;11287;48.122;11.536;2022-10-31T06:22:24;8.00;;;5.10;;
22236;SDS011;11287;48.122;11.536;2022-10-31T06:24:49;10.65;;;5.40;;
22236;SDS011;11287;48.122;11.536;2022-10-31T06:27:15;14.25;;;5.05;;
22236;SDS011;11287;48.122;11.536;2022-10-31T06:29:40;11.90;;;5.30;;
22236;SDS011;11287;48.122;11.536;2022-10-31T06:32:06;10.70;;;4.93;;
22236;SDS011;11287;48.122;11.536;2022-10-31T06:34:31;10.40;;;5.00;;
22236;SDS011;11287;48.122;11.536;2022-10-31T06:36:56;15.32;;;4.85;;
22236;SDS011;11287;48.122;11.536;2022-10-31T06:39:21;7.43;;;4.60;;
22236;SDS011;11287;48.122;11.536;2022-10-31T06:41:47;10.00;;;3.78;;
22236;SDS011;11287;48.122;11.536;2022-10-31T06:44:13;6.93;;;4.18;;
22236;SDS011;11287;48.122;11.536;2022-10-31T06:46:38;11.65;;;4.60;;
22236;SDS011;11287;48.122;11.536;2022-10-31T06:49:03;8.27;;;4.45;;
22236;SDS011;11287;48.122;11.536;2022-10-31T06:51:29;11.55;;;4.68;;
22236;SDS011;11287;48.122;11.536;2022-10-31T06:53:54;7.65;;;4.50;;
22236;SDS011;11287;48.122;11.536;2022-10-31T06:56:19;19.48;;;4.63;;
22236;SDS011;11287;48.122;11.536;2022-10-31T06:58:45;10.32;;;4.32;;
22236;SDS011;11287;48.122;11.536;2022-10-31T07:01:10;11.77;;;4.97;;
22236;SDS011;11287;48.122;11.536;2022-10-31T07:03:35;12.32;;;4.80;;
22236;SDS011;11287;48.122;11.536;2022-10-31T07:06:01;15.43;;;5.85;;
22236;SDS011;11287;48.122;11.536;2022-10-31T07:08:26;10.60;;;4.60;;
22236;SDS011;11287;48.122;11.536;2022-10-31T07:10:53;12.43;;;4.88;;
22236;SDS011;11287;48.122;11.536;2022-10-31T07:13:19;18.55;;;5.32;;
22236;SDS011;11287;48.122;11.536;2022-10-31T07:15:51;9.48;;;4.15;;
22236;SDS011;11287;48.122;11.536;2022-10-31T07:18:17;7.63;;;4.18;;
22236;SDS011;11287;48.122;11.536;2022-10-31T07:20:42;11.43;;;4.38;;
22236;SDS011;11287;48.122;11.536;2022-10-31T07:23:09;10.20;;;4.50;;
22236;SDS011;11287;48.122;11.536;2022-10-31T07:25:35;11.90;;;4.75;;
22236;SDS011;11287;48.122;11.536;2022-10-31T07:28:00;15.45;;;5.40;;
22236;SDS011;11287;48.122;11.536;2022-10-31T07:30:25;13.13;;;4.88;;
22236;SDS011;11287;48.122;11.536;2022-10-31T07:32:50;9.50;;;4.68;;
22236;SDS011;11287;48.122;11.536;2022-10-31T07:35:20;14.32;;;4.63;;
22236;SDS011;11287;48.122;11.536;2022-10-31T07:37:47;15.38;;;5.70;;
22236;SDS011;11287;48.122;11.536;2022-10-31T07:40:13;17.17;;;5.20;;
22236;SDS011;11287;48.122;11.536;2022-10-31T07:42:39;13.15;;;4.78;;
22236;SDS011;11287;48.122;11.536;2022-10-31T07:45:06;14.35;;;5.32;;
22236;SDS011;11287;48.122;11.536;2022-10-31T07:47:39;6.78;;;4.55;;
22236;SDS011;11287;48.122;11.536;2022-10-31T07:50:13;11.32;;;5.05;;
22236;SDS011;11287;48.122;11.536;2022-10-31T07:52:40;13.00;;;5.13;;
22236;SDS011;11287;48.122;11.536;2022-10-31T07:55:05;16.25;;;4.85;;
22236;SDS011;11287;48.122;11.536;2022-10-31T07:57:31;11.00;;;4.57;;
22236;SDS011;11287;48.122;11.536;2022-10-31T07:59:57;8.98;;;3.80;;
22236;SDS011;11287;48.122;11.536;2022-10-31T08:02:22;12.68;;;4.57;;
22236;SDS011;11287;48.122;11.536;2022-10-31T08:04:48;10.57;;;4.30;;
22236;SDS011;11287;48.122;11.536;2022-10-31T08:07:14;14.25;;;5.20;;
22236;SDS011;11287;48.122;11.536;2022-10-31T08:09:39;10.30;;;4.85;;
22236;SDS011;11287;48.122;11.536;2022-10-31T08:12:04;12.20;;;4.75;;
22236;SDS011;11287;48.122;11.536;2022-10-31T08:14:29;13.00;;;4.43;;
22236;SDS011;11287;48.122;11.536;2022-10-31T08:16:55;10.90;;;4.70;;
22236;SDS011;11287;48.122;11.536;2022-10-31T08:19:20;11.98;;;4.15;;
22236;SDS011;11287;48.122;11.536;2022-10-31T08:21:46;12.73;;;3.88;;
22236;SDS011;11287;48.122;11.536;2022-10-31T08:24:11;10.02;;;4.05;;
22236;SDS011;11287;48.122;11.536;2022-10-31T08:26:37;8.65;;;3.70;;
22236;SDS011;11287;48.122;11.536;2022-10-31T08:29:02;11.55;;;4.20;;
22236;SDS011;11287;48.122;11.536;2022-10-31T08:31:28;10.98;;;4.18;;
22236;SDS011;11287;48.122;11.536;2022-10-31T08:33:54;12.95;;;5.03;;
22236;SDS011;11287;48.122;11.536;2022-10-31T08:36:19;9.38;;;4.10;;
22236;SDS011;11287;48.122;11.536;2022-10-31T08:38:46;12.35;;;4.43;;
22236;SDS011;11287;48.122;11.536;2022-10-31T08:41:11;13.93;;;4.90;;
22236;SDS011;11287;48.122;11.536;2022-10-31T08:43:38;15.43;;;5.60;;
22236;SDS011;11287;48.122;11.536;2022-10-31T08:46:03;19.58;;;4.65;;
22236;SDS011;11287;48.122;11.536;2022-10-31T08:48:29;15.27;;;5.88;;
22236;SDS011;11287;48.122;11.536;2022-10-31T08:50:55;15.85;;;6.53;;
22236;SDS011;11287;48.122;11.536;2022-10-31T08:53:21;18.52;;;6.45;;
22236;SDS011;11287;48.122;11.536;2022-10-31T08:55:47;17.38;;;5.75;;
22236;SDS011;11287;48.122;11.536;2022-10-31T08:58:17;17.15;;;6.72;;
22236;SDS011;11287;48.122;11.536;2022-10-31T09:00:43;15.63;;;5.90;;
22236;SDS011;11287;48.122;11.536;2022-10-31T09:03:11;19.30;;;7.22;;
22236;SDS011;11287;48.122;11.536;2022-10-31T09:05:40;17.88;;;6.88;;
22236;SDS011;11287;48.122;11.536;2022-10-31T09:08:06;13.45;;;6.85;;
22236;SDS011;11287;48.122;11.536;2022-10-31T09:10:32;21.30;;;7.25;;
22236;SDS011;11287;48.122;11.536;2022-10-31T09:13:00;21.27;;;6.45;;
22236;SDS011;11287;48.122;11.536;2022-10-31T09:15:26;16.30;;;6.68;;
22236;SDS011;11287;48.122;11.536;2022-10-31T09:17:52;15.38;;;6.97;;
22236;SDS011;11287;48.122;11.536;2022-10-31T09:20:18;16.85;;;6.72;;
22236;SDS011;11287;48.122;11.536;2022-10-31T09:22:44;14.48;;;6.30;;
22236;SDS011;11287;48.122;11.536;2022-10-31T09:25:10;12.95;;;5.55;;
22236;SDS011;11287;48.122;11.536;2022-10-31T09:27:35;17.58;;;6.35;;
22236;SDS011;11287;48.122;11.536;2022-10-31T09:30:01;15.23;;;6.68;;
22236;SDS011;11287;48.122;11.536;2022-10-31T09:32:26;14.75;;;7.00;;
22236;SDS011;11287;48.122;11.536;2022-10-31T09:34:51;16.42;;;6.90;;
22236;SDS011;11287;48.122;11.536;2022-10-31T09:37:17;17.52;;;6.65;;
22236;SDS011;11287;48.122;11.536;2022-10-31T09:39:42;15.63;;;6.10;;
22236;SDS011;11287;48.122;11.536;2022-10-31T09:44:52;16.80;;;7.60;;
22236;SDS011;11287;48.122;11.536;2022-10-31T09:47:43;15.88;;;6.35;;
22236;SDS011;11287;48.122;11.536;2022-10-31T09:50:44;9.32;;;5.85;;
22236;SDS011;11287;48.122;11.536;2022-10-31T09:53:17;15.18;;;5.97;;
22236;SDS011;11287;48.122;11.536;2022-10-31T09:55:46;11.17;;;4.93;;
22236;SDS011;11287;48.122;11.536;2022-10-31T09:58:16;14.32;;;4.75;;
22236;SDS011;11287;48.122;11.536;2022-10-31T10:00:45;16.35;;;4.55;;
22236;SDS011;11287;48.122;11.536;2022-10-31T10:08:39;7.35;;;3.20;;
22236;SDS011;11287;48.122;11.536;2022-10-31T10:14:07;7.22;;;2.85;;
22236;SDS011;11287;48.122;11.536;2022-10-31T10:19:22;9.38;;;2.90;;
22236;SDS011;11287;48.122;11.536;2022-10-31T10:30:23;11.20;;;3.03;;
22236;SDS011;11287;48.122;11.536;2022-10-31T10:32:59;9.07;;;3.08;;
22236;SDS011;11287;48.122;11.536;2022-10-31T10:35:29;10.10;;;3.55;;
22236;SDS011;11287;48.122;11.536;2022-10-31T10:38:16;14.57;;;3.30;;
22236;SDS011;11287;48.122;11.536;2022-10-31T10:40:45;10.90;;;3.33;;
22236;SDS011;11287;48.122;11.536;2022-10-31T10:43:17;7.70;;;2.90;;
22236;SDS011;11287;48.122;11.536;2022-10-31T10:48:59;9.60;;;3.50;;
22236;SDS011;11287;48.122;11.536;2022-10-31T10:51:58;9.85;;;3.47;;
22236;SDS011;11287;48.122;11.536;2022-10-31T10:57:20;10.40;;;3.22;;
22236;SDS011;11287;48.122;11.536;2022-10-31T11:00:14;10.10;;;2.90;;
22236;SDS011;11287;48.122;11.536;2022-10-31T11:02:42;6.28;;;2.67;;
22236;SDS011;11287;48.122;11.536;2022-10-31T11:05:13;9.50;;;3.10;;
22236;SDS011;11287;48.122;11.536;2022-10-31T11:07:40;5.65;;;2.45;;
22236;SDS011;11287;48.122;11.536;2022-10-31T11:10:05;7.57;;;3.00;;
22236;SDS011;11287;48.122;11.536;2022-10-31T11:12:38;8.07;;;3.08;;
22236;SDS011;11287;48.122;11.536;2022-10-31T11:15:15;6.25;;;2.55;;
22236;SDS011;11287;48.122;11.536;2022-10-31T11:17:46;8.25;;;2.80;;
22236;SDS011;11287;48.122;11.536;2022-10-31T11:22:42;9.23;;;2.60;;
22236;SDS011;11287;48.122;11.536;2022-10-31T11:25:24;13.13;;;3.42;;
22236;SDS011;11287;48.122;11.536;2022-10-31T11:28:04;16.88;;;3.10;;
22236;SDS011;11287;48.122;11.536;2022-10-31T11:30:35;8.35;;;2.85;;
22236;SDS011;11287;48.122;11.536;2022-10-31T11:33:01;7.70;;;2.63;;
22236;SDS011;11287;48.122;11.536;2022-10-31T11:35:27;15.80;;;3.67;;
22236;SDS011;11287;48.122;11.536;2022-10-31T11:37:54;13.30;;;3.08;;
22236;SDS011;11287;48.122;11.536;2022-10-31T11:40:24;7.10;;;2.50;;
22236;SDS011;11287;48.122;11.536;2022-10-31T11:42:51;14.43;;;3.10;;
22236;SDS011;11287;48.122;11.536;2022-10-31T11:47:50;9.45;;;2.80;;
22236;SDS011;11287;48.122;11.536;2022-10-31T11:50:21;11.93;;;3.85;;
22236;SDS011;11287;48.122;11.536;2022-10-31T11:52:48;9.52;;;2.67;;
22236;SDS011;11287;48.122;11.536;2022-10-31T11:55:29;8.07;;;2.78;;
22236;SDS011;11287;48.122;11.536;2022-10-31T11:58:04;8.43;;;2.70;;
22236;SDS011;11287;48.122;11.536;2022-10-31T12:00:30;9.63;;;2.63;;
22236;SDS011;11287;48.122;11.536;2022-10-31T12:03:14;6.20;;;2.97;;
22236;SDS011;11287;48.122;11.536;2022-10-31T12:05:51;9.98;;;3.08;;
22236;SDS011;11287;48.122;11.536;2022-10-31T12:08:18;10.27;;;2.60;;
22236;SDS011;11287;48.122;11.536;2022-10-31T12:11:05;8.75;;;2.72;;
22236;SDS011;11287;48.122;11.536;2022-10-31T12:16:12;6.47;;;2.78;;
22236;SDS011;11287;48.122;11.536;2022-10-31T12:26:34;7.28;;;3.10;;
22236;SDS011;11287;48.122;11.536;2022-10-31T12:34:46;8.20;;;2.53;;
22236;SDS011;11287;48.122;11.536;2022-10-31T12:40:12;9.30;;;3.00;;
22236;SDS011;11287;48.122;11.536;2022-10-31T12:45:42;14.40;;;3.35;;
22236;SDS011;11287;48.122;11.536;2022-10-31T12:48:27;9.18;;;3.10;;
22236;SDS011;11287;48.122;11.536;2022-10-31T12:58:43;9.15;;;2.90;;
22236;SDS011;11287;48.122;11.536;2022-10-31T13:01:19;12.00;;;3.40;;
22236;SDS011;11287;48.122;11.536;2022-10-31T13:03:51;8.05;;;3.05;;
22236;SDS011;11287;48.122;11.536;2022-10-31T13:06:27;8.27;;;3.28;;
22236;SDS011;11287;48.122;11.536;2022-10-31T13:08:57;10.15;;;2.97;;
22236;SDS011;11287;48.122;11.536;2022-10-31T13:11:30;9.57;;;3.08;;
22236;SDS011;11287;48.122;11.536;2022-10-31T13:14:02;13.55;;;3.72;;
22236;SDS011;11287;48.122;11.536;2022-10-31T13:16:41;14.20;;;3.38;;
22236;SDS011;11287;48.122;11.536;2022-10-31T13:24:20;9.23;;;3.00;;
22236;SDS011;11287;48.122;11.536;2022-10-31T13:26:52;10.55;;;3.25;;
22236;SDS011;11287;48.122;11.536;2022-10-31T13:31:56;11.52;;;3.13;;
22236;SDS011;11287;48.122;11.536;2022-10-31T13:34:23;9.65;;;3.22;;
22236;SDS011;11287;48.122;11.536;2022-10-31T13:44:39;14.27;;;3.25;;
22236;SDS011;11287;48.122;11.536;2022-10-31T13:47:22;11.07;;;3.75;;
22236;SDS011;11287;48.122;11.536;2022-10-31T13:49:51;5.22;;;2.90;;
22236;SDS011;11287;48.122;11.536;2022-10-31T13:52:25;12.55;;;3.67;;
22236;SDS011;11287;48.122;11.536;2022-10-31T13:54:52;13.00;;;3.80;;
22236;SDS011;11287;48.122;11.536;2022-10-31T14:02:51;12.48;;;3.92;;
22236;SDS011;11287;48.122;11.536;2022-10-31T14:07:49;13.57;;;3.75;;
22236;SDS011;11287;48.122;11.536;2022-10-31T14:10:28;13.73;;;3.65;;
22236;SDS011;11287;48.122;11.536;2022-10-31T14:13:05;10.43;;;3.85;;
22236;SDS011;11287;48.122;11.536;2022-10-31T14:15:32;12.77;;;4.50;;
22236;SDS011;11287;48.122;11.536;2022-10-31T14:17:58;8.38;;;3.92;;
22236;SDS011;11287;48.122;11.536;2022-10-31T14:28:45;9.55;;;3.95;;
22236;SDS011;11287;48.122;11.536;2022-10-31T14:31:29;11.98;;;3.55;;
22236;SDS011;11287;48.122;11.536;2022-10-31T14:33:57;6.75;;;3.45;;
22236;SDS011;11287;48.122;11.536;2022-10-31T14:36:40;12.32;;;4.40;;
22236;SDS011;11287;48.122;11.536;2022-10-31T14:53:33;10.05;;;3.78;;
22236;SDS011;11287;48.122;11.536;2022-10-31T14:56:01;13.05;;;3.92;;
22236;SDS011;11287;48.122;11.536;2022-10-31T15:01:03;12.02;;;3.67;;
22236;SDS011;11287;48.122;11.536;2022-10-31T15:03:33;12.82;;;4.28;;
22236;SDS011;11287;48.122;11.536;2022-10-31T15:06:02;12.15;;;4.45;;
22236;SDS011;11287;48.122;11.536;2022-10-31T15:08:40;16.70;;;4.38;;
22236;SDS011;11287;48.122;11.536;2022-10-31T15:11:19;11.77;;;4.38;;
22236;SDS011;11287;48.122;11.536;2022-10-31T15:13:53;11.82;;;4.22;;
22236;SDS011;11287;48.122;11.536;2022-10-31T15:16:27;13.88;;;4.13;;
22236;SDS011;11287;48.122;11.536;2022-10-31T15:18:58;10.68;;;4.32;;
22236;SDS011;11287;48.122;11.536;2022-10-31T15:21:42;13.15;;;4.50;;
22236;SDS011;11287;48.122;11.536;2022-10-31T15:24:10;13.18;;;4.30;;
22236;SDS011;11287;48.122;11.536;2022-10-31T15:26:38;13.05;;;4.15;;
22236;SDS011;11287;48.122;11.536;2022-10-31T15:29:14;11.82;;;4.85;;
22236;SDS011;11287;48.122;11.536;2022-10-31T15:31:51;16.85;;;5.20;;
22236;SDS011;11287;48.122;11.536;2022-10-31T15:34:22;11.20;;;4.75;;
22236;SDS011;11287;48.122;11.536;2022-10-31T15:36:51;12.18;;;4.75;;
22236;SDS011;11287;48.122;11.536;2022-10-31T15:39:17;25.90;;;5.80;;
22236;SDS011;11287;48.122;11.536;2022-10-31T15:41:52;20.27;;;5.60;;
22236;SDS011;11287;48.122;11.536;2022-10-31T15:44:24;14.15;;;6.15;;
22236;SDS011;11287;48.122;11.536;2022-10-31T15:46:56;15.10;;;5.53;;
22236;SDS011;11287;48.122;11.536;2022-10-31T15:50:18;19.63;;;6.07;;
22236;SDS011;11287;48.122;11.536;2022-10-31T15:52:21;13.43;;;5.57;;
22236;SDS011;11287;48.122;11.536;2022-10-31T15:54:54;14.20;;;5.70;;
22236;SDS011;11287;48.122;11.536;2022-10-31T15:57:22;17.35;;;5.88;;
22236;SDS011;11287;48.122;11.536;2022-10-31T15:59:49;18.23;;;6.47;;
22236;SDS011;11287;48.122;11.536;2022-10-31T16:02:17;17.27;;;5.90;;
22236;SDS011;11287;48.122;11.536;2022-10-31T16:04:58;12.43;;;6.55;;
22236;SDS011;11287;48.122;11.536;2022-10-31T16:07:26;15.75;;;6.88;;
22236;SDS011;11287;48.122;11.536;2022-10-31T16:09:53;18.27;;;11.25;;
22236;SDS011;11287;48.122;11.536;2022-10-31T16:12:22;30.88;;;14.30;;
22236;SDS011;11287;48.122;11.536;2022-10-31T16:14:49;20.35;;;8.85;;
22236;SDS011;11287;48.122;11.536;2022-10-31T16:17:16;21.40;;;9.02;;
22236;SDS011;11287;48.122;11.536;2022-10-31T16:19:58;15.27;;;7.40;;
22236;SDS011;11287;48.122;11.536;2022-10-31T16:22:27;16.60;;;8.10;;
22236;SDS011;11287;48.122;11.536;2022-10-31T16:25:04;19.70;;;8.77;;
22236;SDS011;11287;48.122;11.536;2022-10-31T16:27:35;19.83;;;9.15;;
22236;SDS011;11287;48.122;11.536;2022-10-31T16:30:01;22.55;;;9.07;;
22236;SDS011;11287;48.122;11.536;2022-10-31T16:32:33;23.75;;;9.18;;
22236;SDS011;11287;48.122;11.536;2022-10-31T16:37:41;17.77;;;9.87;;
22236;SDS011;11287;48.122;11.536;2022-10-31T16:40:11;23.60;;;9.38;;
22236;SDS011;11287;48.122;11.536;2022-10-31T16:42:38;27.33;;;9.68;;
22236;SDS011;11287;48.122;11.536;2022-10-31T16:45:04;23.92;;;10.20;;
22236;SDS011;11287;48.122;11.536;2022-10-31T16:47:30;21.35;;;10.75;;
22236;SDS011;11287;48.122;11.536;2022-10-31T16:49:56;21.38;;;10.60;;
22236;SDS011;11287;48.122;11.536;2022-10-31T16:52:24;25.48;;;10.75;;
22236;SDS011;11287;48.122;11.536;2022-10-31T16:54:50;27.55;;;10.32;;
22236;SDS011;11287;48.122;11.536;2022-10-31T16:57:16;21.67;;;10.50;;
22236;SDS011;11287;48.122;11.536;2022-10-31T16:59:43;26.67;;;11.10;;
22236;SDS011;11287;48.122;11.536;2022-10-31T17:02:11;26.27;;;11.85;;